Private Wetterstation Nrnberg - Katzwang
Wetterdaten: Mrz 2014
Datum Temp. A. Feuchte A. Luftdruck Regen Wind Richtung Taupunkt Windchill Windben
01.03.2014 4,7 C 76 % 999 hPa 0,0 l/m 0,5 km/h W-NW 0,8 C 4,7 C 1,5 km/h
02.03.2014 3,8 C 79 % 1000 hPa 0,0 l/m 0,9 km/h W-NW 0,5 C 3,8 C 1,9 km/h
03.03.2014 4,4 C 74 % 993 hPa 0,0 l/m 2,4 km/h W-NW -0,1 C 4,4 C 3,4 km/h
04.03.2014 5,5 C 77 % 1001 hPa 0,0 l/m 2,0 km/h NO 1,7 C 5,1 C 3,0 km/h
05.03.2014 5,9 C 74 % 1016 hPa 0,0 l/m 1,9 km/h N-NO 1,4 C 5,7 C 2,9 km/h
06.03.2014 4,3 C 76 % 1025 hPa 0,0 l/m 0,0 km/h N-NO 0,2 C 4,3 C 1,0 km/h
07.03.2014 4,3 C 73 % 1023 hPa 0,0 l/m 0,0 km/h N-NO -0,3 C 4,3 C 1,0 km/h
08.03.2014 5,3 C 68 % 1029 hPa 0,0 l/m 3,3 km/h O -0,5 C 4,9 C 4,3 km/h
09.03.2014 7,3 C 64 % 1028 hPa 0,0 l/m 0,0 km/h O 0,4 C 7,3 C 1,0 km/h
10.03.2014 7,1 C 58 % 1021 hPa 0,0 l/m 2,9 km/h NO -1,5 C 6,5 C 3,9 km/h
11.03.2014 6,8 C 57 % 1026 hPa 0,0 l/m 1,7 km/h O -2,2 C 6,8 C 2,7 km/h
12.03.2014 7,3 C 59 % 1027 hPa 0,0 l/m 2,2 km/h NO -1,1 C 7,1 C 3,2 km/h
13.03.2014 7,6 C 61 % 1024 hPa 0,0 l/m 0,9 km/h NO -0,2 C 7,6 C 1,9 km/h
14.03.2014 7,5 C 64 % 1020 hPa 0,0 l/m 0,5 km/h NO 0,5 C 7,5 C 1,5 km/h
15.03.2014 7,2 C 74 % 1016 hPa 0,5 l/m 9,4 km/h W-NW 2,7 C 4,6 C 10,4 km/h
16.03.2014 10,7 C 74 % 1016 hPa 0,0 l/m 2,9 km/h W-NW 6,2 C 10,2 C 3,9 km/h
17.03.2014 10,3 C 71 % 1017 hPa 0,0 l/m 2,0 km/h W-NW 5,1 C 10,3 C 3,1 km/h
18.03.2014 11,6 C 59 % 1012 hPa 0,0 l/m 4,8 km/h W-NW 3,4 C 11,1 C 5,8 km/h
19.03.2014 9,4 C 69 % 1021 hPa 0,0 l/m 8,4 km/h W-NW 3,9 C 6,7 C 14,0 km/h
20.03.2014 11,3 C 60 % 1015 hPa 0,0 l/m 3,3 km/h NO 3,2 C 10,8 C 4,3 km/h
21.03.2014 14,1 C 54 % 1009 hPa 0,0 l/m 2,2 km/h W-NW 3,9 C 13,9 C 3,2 km/h
22.03.2014 9,6 C 77 % 1003 hPa 3,1 l/m 4,8 km/h N-NO 5,8 C 8,5 C 5,8 km/h
23.03.2014 4,9 C 76 % 1004 hPa 0,0 l/m 1,5 km/h W-NW 1,0 C 4,9 C 2,5 km/h
24.03.2014 4,9 C 72 % 1009 hPa 0,5 l/m 0,0 km/h N 0,3 C 4,9 C 1,0 km/h
25.03.2014 2,7 C 76 % 1007 hPa 1,0 l/m 2,6 km/h NO -1,3 C 2,0 C 3,6 km/h
26.03.2014 6,0 C 65 % 1009 hPa 0,0 l/m 2,6 km/h O -0,5 C 6,0 C 3,6 km/h
27.03.2014 8,7 C 62 % 1009 hPa 0,0 l/m 7,9 km/h O 1,2 C 6,9 C 8,9 km/h
28.03.2014 7,9 C 65 % 1015 hPa 0,0 l/m 4,9 km/h O 1,3 C 6,6 C 7,3 km/h
29.03.2014 9,9 C 61 % 1017 hPa 0,0 l/m 2,2 km/h O 2,1 C 9,6 C 3,2 km/h
30.03.2014 11,6 C 58 % 1013 hPa 0,0 l/m 3,3 km/h W-NW 3,1 C 11,5 C 4,3 km/h
31.03.2014 11,7 C 65 % 1011 hPa 0,0 l/m 0,9 km/h N 5,0 C 11,7 C 1,9 km/h
Min-Datum 07.03.14 21.03.14 03.03.14 4 Tage 01.03.14 - 07.03.14 03.03.14 01.03.14
Min-Zeit 06:50 14:30 05:40 - 00:00 - 06:50 03:00 00:00
Minimum -2,8 C 27 % 992 hPa - 0,0 km/h - -5,4 C -4,0 C 1,0 km/h
Max-Datum 21.03.14 03.03.14 08.03.14 22.03.14 18.03.14 - 30.03.14 21.03.14 16.03.14
Max-Zeit 14:20 08:20 10:30 08:10 15:10 - 13:10 13:20 14:50
Maximum 22,6 C 84 % 1031 hPa 3,1 l/m 42,4 km/h
W-NW
- 9,2 C 22,5 C 58,5 km/h
W-NW
Durchschnitt 7,6 C 68 % 1014 hPa #5,2 l/m 2,7 km/h W-NW 1,5 C 7,1 C 3,9 km/h

Durchschnitt Minimum Temp.1,0 C
Durchschnitt Maximum Temp.15,0 C